<?xml version="1.0" encoding="UTF-8" standalone="no" ?><gpx xmlns="http://www.topografix.com/GPX/1/1" xmlns:gpxx="http://www.garmin.com/xmlschemas/GpxExtensions/v3" xmlns:wptx1="http://www.garmin.com/xmlschemas/WaypointExtension/v1" xmlns:gpxtpx="http://www.garmin.com/xmlschemas/TrackPointExtension/v1" creator="GuideVTT.com" version="1.1" xmlns:xsi="http://www.w3.org/2001/XMLSchema-instance" xsi:schemaLocation="http://www.topografix.com/GPX/1/1 http://www.topografix.com/GPX/1/1/gpx.xsd http://www.garmin.com/xmlschemas/GpxExtensions/v3 http://www8.garmin.com/xmlschemas/GpxExtensionsv3.xsd http://www.garmin.com/xmlschemas/WaypointExtension/v1 http://www8.garmin.com/xmlschemas/WaypointExtensionv1.xsd http://www.garmin.com/xmlschemas/TrackPointExtension/v1 http://www.garmin.com/xmlschemas/TrackPointExtensionv1.xsd">
<metadata><link href="http://www.garmin.com"><text>Garmin International</text></link><time>2013-06-22T15:13:50Z</time></metadata>
<trk><name>trk.gpx</name><extensions><gpxx:TrackExtension><gpxx:DisplayColor>Cyan</gpxx:DisplayColor></gpxx:TrackExtension></extensions><trkseg>
<trkpt lat="5332086.00" lon="366.2"><ele></ele><time>2014-5-9T14:36:52Z</time></trkpt>
<trkpt lat="5332084.00" lon="366.9"><ele></ele><time>2014-5-9T14:36:55Z</time></trkpt>
<trkpt lat="5332081.50" lon="367.5"><ele></ele><time>2014-5-9T14:36:58Z</time></trkpt>
<trkpt lat="5332079.50" lon="368.2"><ele></ele><time>2014-5-9T14:37:1Z</time></trkpt>
<trkpt lat="5332076.00" lon="369.1"><ele></ele><time>2014-5-9T14:37:4Z</time></trkpt>
<trkpt lat="5332073.00" lon="370.1"><ele></ele><time>2014-5-9T14:37:7Z</time></trkpt>
<trkpt lat="5332070.50" lon="370.8"><ele></ele><time>2014-5-9T14:37:10Z</time></trkpt>
<trkpt lat="5332067.00" lon="371.8"><ele></ele><time>2014-5-9T14:37:13Z</time></trkpt>
<trkpt lat="5332065.00" lon="372.4"><ele></ele><time>2014-5-9T14:37:16Z</time></trkpt>
<trkpt lat="5332061.50" lon="373.4"><ele></ele><time>2014-5-9T14:37:19Z</time></trkpt>
<trkpt lat="5332058.50" lon="374.4"><ele></ele><time>2014-5-9T14:37:22Z</time></trkpt>
<trkpt lat="5332055.00" lon="375.4"><ele></ele><time>2014-5-9T14:37:25Z</time></trkpt>
<trkpt lat="5332051.50" lon="376.4"><ele></ele><time>2014-5-9T14:37:28Z</time></trkpt>
<trkpt lat="5332047.00" lon="377.7"><ele></ele><time>2014-5-9T14:37:31Z</time></trkpt>
<trkpt lat="5332043.50" lon="378.6"><ele></ele><time>2014-5-9T14:37:34Z</time></trkpt>
<trkpt lat="5332041.50" lon="379.1"><ele></ele><time>2014-5-9T14:37:37Z</time></trkpt>
<trkpt lat="5332038.00" lon="379.4"><ele></ele><time>2014-5-9T14:37:40Z</time></trkpt>
<trkpt lat="5332034.50" lon="379.9"><ele></ele><time>2014-5-9T14:37:43Z</time></trkpt>
<trkpt lat="5332030.00" lon="380.5"><ele></ele><time>2014-5-9T14:37:46Z</time></trkpt>
<trkpt lat="5332025.50" lon="380.9"><ele></ele><time>2014-5-9T14:37:49Z</time></trkpt>
<trkpt lat="5332023.50" lon="381.1"><ele></ele><time>2014-5-9T14:37:52Z</time></trkpt>
<trkpt lat="5332020.00" lon="381.3"><ele></ele><time>2014-5-9T14:37:55Z</time></trkpt>
<trkpt lat="5332016.00" lon="381.7"><ele></ele><time>2014-5-9T14:37:58Z</time></trkpt>
<trkpt lat="5332014.00" lon="381.7"><ele></ele><time>2014-5-9T14:38:1Z</time></trkpt>
<trkpt lat="5332010.50" lon="382.0"><ele></ele><time>2014-5-9T14:38:4Z</time></trkpt>
<trkpt lat="5332008.50" lon="381.9"><ele></ele><time>2014-5-9T14:38:7Z</time></trkpt>
<trkpt lat="5332006.00" lon="382.0"><ele></ele><time>2014-5-9T14:38:10Z</time></trkpt>
<trkpt lat="5332002.50" lon="382.2"><ele></ele><time>2014-5-9T14:38:13Z</time></trkpt>
<trkpt lat="5332000.00" lon="382.2"><ele></ele><time>2014-5-9T14:38:16Z</time></trkpt>
<trkpt lat="5331999.00" lon="382.4"><ele></ele><time>2014-5-9T14:38:19Z</time></trkpt>
<trkpt lat="5331997.50" lon="382.2"><ele></ele><time>2014-5-9T14:38:22Z</time></trkpt>
<trkpt lat="5331997.00" lon="381.6"><ele></ele><time>2014-5-9T14:38:25Z</time></trkpt>
<trkpt lat="5331996.00" lon="381.4"><ele></ele><time>2014-5-9T14:38:28Z</time></trkpt>
<trkpt lat="5331996.00" lon="380.8"><ele></ele><time>2014-5-9T14:38:31Z</time></trkpt>
<trkpt lat="5331994.50" lon="381.0"><ele></ele><time>2014-5-9T14:38:34Z</time></trkpt>
<trkpt lat="5331993.50" lon="380.6"><ele></ele><time>2014-5-9T14:38:37Z</time></trkpt>
<trkpt lat="5331991.50" lon="380.4"><ele></ele><time>2014-5-9T14:38:40Z</time></trkpt>
<trkpt lat="5331988.50" lon="380.2"><ele></ele><time>2014-5-9T14:38:43Z</time></trkpt>
<trkpt lat="5331986.50" lon="380.3"><ele></ele><time>2014-5-9T14:38:46Z</time></trkpt>
<trkpt lat="5331985.00" lon="380.1"><ele></ele><time>2014-5-9T14:38:49Z</time></trkpt>
<trkpt lat="5331982.50" lon="380.2"><ele></ele><time>2014-5-9T14:38:52Z</time></trkpt>
<trkpt lat="5331981.00" lon="379.9"><ele></ele><time>2014-5-9T14:38:55Z</time></trkpt>
<trkpt lat="5331981.00" lon="379.5"><ele></ele><time>2014-5-9T14:38:58Z</time></trkpt>
<trkpt lat="5331981.00" lon="378.8"><ele></ele><time>2014-5-9T14:39:1Z</time></trkpt>
<trkpt lat="5331982.00" lon="377.8"><ele></ele><time>2014-5-9T14:39:4Z</time></trkpt>
<trkpt lat="5331984.00" lon="376.5"><ele></ele><time>2014-5-9T14:39:7Z</time></trkpt>
<trkpt lat="5331985.50" lon="375.5"><ele></ele><time>2014-5-9T14:39:10Z</time></trkpt>
<trkpt lat="5331982.50" lon="375.7"><ele></ele><time>2014-5-9T14:39:13Z</time></trkpt>
<trkpt lat="5331981.50" lon="375.8"><ele></ele><time>2014-5-9T14:39:16Z</time></trkpt>
<trkpt lat="5331980.00" lon="375.6"><ele></ele><time>2014-5-9T14:39:19Z</time></trkpt>
<trkpt lat="5331979.00" lon="375.0"><ele></ele><time>2014-5-9T14:39:22Z</time></trkpt>
<trkpt lat="5331978.50" lon="374.2"><ele></ele><time>2014-5-9T14:39:25Z</time></trkpt>
<trkpt lat="5331975.50" lon="374.9"><ele></ele><time>2014-5-9T14:39:28Z</time></trkpt>
<trkpt lat="5331973.50" lon="375.0"><ele></ele><time>2014-5-9T14:39:31Z</time></trkpt>
<trkpt lat="5331970.00" lon="375.3"><ele></ele><time>2014-5-9T14:39:34Z</time></trkpt>
<trkpt lat="5331968.00" lon="374.9"><ele></ele><time>2014-5-9T14:39:37Z</time></trkpt>
<trkpt lat="5331965.00" lon="374.9"><ele></ele><time>2014-5-9T14:39:40Z</time></trkpt>
<trkpt lat="5331960.00" lon="375.5"><ele></ele><time>2014-5-9T14:39:43Z</time></trkpt>
<trkpt lat="5331956.00" lon="376.9"><ele></ele><time>2014-5-9T14:39:46Z</time></trkpt>
<trkpt lat="5331951.50" lon="378.7"><ele></ele><time>2014-5-9T14:39:49Z</time></trkpt>
<trkpt lat="5331947.00" lon="380.8"><ele></ele><time>2014-5-9T14:39:52Z</time></trkpt>
<trkpt lat="5331942.50" lon="382.1"><ele></ele><time>2014-5-9T14:39:55Z</time></trkpt>
<trkpt lat="5331938.00" lon="383.2"><ele></ele><time>2014-5-9T14:39:58Z</time></trkpt>
<trkpt lat="5331933.50" lon="384.3"><ele></ele><time>2014-5-9T14:40:1Z</time></trkpt>
<trkpt lat="5331930.50" lon="385.4"><ele></ele><time>2014-5-9T14:40:4Z</time></trkpt>
<trkpt lat="5331927.50" lon="386.3"><ele></ele><time>2014-5-9T14:40:7Z</time></trkpt>
<trkpt lat="5331923.00" lon="387.4"><ele></ele><time>2014-5-9T14:40:10Z</time></trkpt>
<trkpt lat="5331918.50" lon="388.3"><ele></ele><time>2014-5-9T14:40:13Z</time></trkpt>
<trkpt lat="5331914.00" lon="388.9"><ele></ele><time>2014-5-9T14:40:16Z</time></trkpt>
<trkpt lat="5331910.00" lon="389.8"><ele></ele><time>2014-5-9T14:40:19Z</time></trkpt>
<trkpt lat="5331907.50" lon="390.3"><ele></ele><time>2014-5-9T14:40:22Z</time></trkpt>
<trkpt lat="5331906.50" lon="390.6"><ele></ele><time>2014-5-9T14:40:25Z</time></trkpt>
<trkpt lat="5331904.00" lon="391.2"><ele></ele><time>2014-5-9T14:40:28Z</time></trkpt>
<trkpt lat="5331900.50" lon="392.1"><ele></ele><time>2014-5-9T14:40:31Z</time></trkpt>
<trkpt lat="5331898.00" lon="393.0"><ele></ele><time>2014-5-9T14:40:34Z</time></trkpt>
<trkpt lat="5331893.50" lon="393.6"><ele></ele><time>2014-5-9T14:40:37Z</time></trkpt>
<trkpt lat="5331891.50" lon="393.7"><ele></ele><time>2014-5-9T14:40:40Z</time></trkpt>
<trkpt lat="5331886.00" lon="393.8"><ele></ele><time>2014-5-9T14:40:43Z</time></trkpt>
<trkpt lat="5331883.00" lon="393.5"><ele></ele><time>2014-5-9T14:40:46Z</time></trkpt>
<trkpt lat="5331878.50" lon="393.6"><ele></ele><time>2014-5-9T14:40:49Z</time></trkpt>
<trkpt lat="5331873.00" lon="393.9"><ele></ele><time>2014-5-9T14:40:52Z</time></trkpt>
<trkpt lat="5331868.50" lon="394.0"><ele></ele><time>2014-5-9T14:40:55Z</time></trkpt>
<trkpt lat="5331864.00" lon="394.0"><ele></ele><time>2014-5-9T14:40:58Z</time></trkpt>
<trkpt lat="5331859.50" lon="394.2"><ele></ele><time>2014-5-9T14:41:1Z</time></trkpt>
<trkpt lat="5331859.50" lon="393.9"><ele></ele><time>2014-5-9T14:41:4Z</time></trkpt>
<trkpt lat="5331858.50" lon="393.9"><ele></ele><time>2014-5-9T14:41:7Z</time></trkpt>
<trkpt lat="5331859.50" lon="393.8"><ele></ele><time>2014-5-9T14:41:10Z</time></trkpt>
<trkpt lat="5331860.50" lon="393.7"><ele></ele><time>2014-5-9T14:41:13Z</time></trkpt>
<trkpt lat="5331860.50" lon="393.6"><ele></ele><time>2014-5-9T14:41:16Z</time></trkpt>
<trkpt lat="5331860.50" lon="393.7"><ele></ele><time>2014-5-9T14:41:19Z</time></trkpt>
<trkpt lat="5331862.00" lon="393.6"><ele></ele><time>2014-5-9T14:41:22Z</time></trkpt>
<trkpt lat="5331862.00" lon="393.6"><ele></ele><time>2014-5-9T14:41:25Z</time></trkpt>
<trkpt lat="5331862.00" lon="393.7"><ele></ele><time>2014-5-9T14:41:28Z</time></trkpt>
<trkpt lat="5331860.50" lon="393.8"><ele></ele><time>2014-5-9T14:41:31Z</time></trkpt>
<trkpt lat="5331862.00" lon="393.6"><ele></ele><time>2014-5-9T14:41:34Z</time></trkpt>
<trkpt lat="5331864.00" lon="393.3"><ele></ele><time>2014-5-9T14:41:37Z</time></trkpt>
<trkpt lat="5331865.00" lon="392.7"><ele></ele><time>2014-5-9T14:41:40Z</time></trkpt>
<trkpt lat="5331864.00" lon="392.2"><ele></ele><time>2014-5-9T14:41:43Z</time></trkpt>
<trkpt lat="5331861.50" lon="391.6"><ele></ele><time>2014-5-9T14:41:46Z</time></trkpt>
<trkpt lat="5331862.50" lon="391.0"><ele></ele><time>2014-5-9T14:41:49Z</time></trkpt>
<trkpt lat="5331863.50" lon="390.7"><ele></ele><time>2014-5-9T14:41:52Z</time></trkpt>
<trkpt lat="5331863.50" lon="390.5"><ele></ele><time>2014-5-9T14:41:55Z</time></trkpt>
<trkpt lat="5331863.50" lon="390.1"><ele></ele><time>2014-5-9T14:41:58Z</time></trkpt>
<trkpt lat="5331864.00" lon="389.8"><ele></ele><time>2014-5-9T14:42:1Z</time></trkpt>
<trkpt lat="5331865.50" lon="389.5"><ele></ele><time>2014-5-9T14:42:4Z</time></trkpt>
<trkpt lat="5331867.00" lon="388.9"><ele></ele><time>2014-5-9T14:42:7Z</time></trkpt>
<trkpt lat="5331870.50" lon="387.9"><ele></ele><time>2014-5-9T14:42:10Z</time></trkpt>
<trkpt lat="5331872.50" lon="387.4"><ele></ele><time>2014-5-9T14:42:13Z</time></trkpt>
<trkpt lat="5331875.00" lon="386.8"><ele></ele><time>2014-5-9T14:42:16Z</time></trkpt>
<trkpt lat="5331878.50" lon="386.1"><ele></ele><time>2014-5-9T14:42:19Z</time></trkpt>
<trkpt lat="5331879.50" lon="385.8"><ele></ele><time>2014-5-9T14:42:22Z</time></trkpt>
<trkpt lat="5331880.50" lon="385.6"><ele></ele><time>2014-5-9T14:42:25Z</time></trkpt>
<trkpt lat="5331881.50" lon="385.4"><ele></ele><time>2014-5-9T14:42:28Z</time></trkpt>
<trkpt lat="5331882.50" lon="384.7"><ele></ele><time>2014-5-9T14:42:31Z</time></trkpt>
<trkpt lat="5331884.00" lon="382.8"><ele></ele><time>2014-5-9T14:42:34Z</time></trkpt>
<trkpt lat="5331885.50" lon="381.6"><ele></ele><time>2014-5-9T14:42:37Z</time></trkpt>
<trkpt lat="5331887.50" lon="380.3"><ele></ele><time>2014-5-9T14:42:40Z</time></trkpt>
<trkpt lat="5331890.50" lon="377.6"><ele></ele><time>2014-5-9T14:42:43Z</time></trkpt>
<trkpt lat="5331890.50" lon="375.5"><ele></ele><time>2014-5-9T14:42:46Z</time></trkpt>
<trkpt lat="5331889.50" lon="374.1"><ele></ele><time>2014-5-9T14:42:49Z</time></trkpt>
<trkpt lat="5331885.00" lon="373.1"><ele></ele><time>2014-5-9T14:42:52Z</time></trkpt>
<trkpt lat="5331880.00" lon="372.6"><ele></ele><time>2014-5-9T14:42:55Z</time></trkpt>
<trkpt lat="5331875.50" lon="371.5"><ele></ele><time>2014-5-9T14:42:58Z</time></trkpt>
<trkpt lat="5331872.00" lon="370.4"><ele></ele><time>2014-5-9T14:43:1Z</time></trkpt>
<trkpt lat="5331868.50" lon="369.5"><ele></ele><time>2014-5-9T14:43:4Z</time></trkpt>
<trkpt lat="5331865.00" lon="369.0"><ele></ele><time>2014-5-9T14:43:7Z</time></trkpt>
<trkpt lat="5331861.00" lon="369.2"><ele></ele><time>2014-5-9T14:43:10Z</time></trkpt>
<trkpt lat="5331857.00" lon="369.3"><ele></ele><time>2014-5-9T14:43:13Z</time></trkpt>
<trkpt lat="5331851.50" lon="368.8"><ele></ele><time>2014-5-9T14:43:16Z</time></trkpt>
<trkpt lat="5331846.00" lon="367.7"><ele></ele><time>2014-5-9T14:43:19Z</time></trkpt>
<trkpt lat="5331841.00" lon="366.4"><ele></ele><time>2014-5-9T14:43:22Z</time></trkpt>
<trkpt lat="5331833.00" lon="364.5"><ele></ele><time>2014-5-9T14:43:25Z</time></trkpt>
<trkpt lat="5331831.00" lon="364.1"><ele></ele><time>2014-5-9T14:43:28Z</time></trkpt>
<trkpt lat="5331825.50" lon="362.6"><ele></ele><time>2014-5-9T14:43:31Z</time></trkpt>
<trkpt lat="5331818.00" lon="361.3"><ele></ele><time>2014-5-9T14:43:34Z</time></trkpt>
<trkpt lat="5331813.00" lon="358.9"><ele></ele><time>2014-5-9T14:43:37Z</time></trkpt>
<trkpt lat="5331805.00" lon="356.4"><ele></ele><time>2014-5-9T14:43:40Z</time></trkpt>
<trkpt lat="5331799.00" lon="355.1"><ele></ele><time>2014-5-9T14:43:43Z</time></trkpt>
<trkpt lat="5331796.50" lon="354.0"><ele></ele><time>2014-5-9T14:43:46Z</time></trkpt>
<trkpt lat="5331790.00" lon="351.9"><ele></ele><time>2014-5-9T14:43:49Z</time></trkpt>
<trkpt lat="5331785.50" lon="351.2"><ele></ele><time>2014-5-9T14:43:52Z</time></trkpt>
<trkpt lat="5331776.00" lon="350.4"><ele></ele><time>2014-5-9T14:43:55Z</time></trkpt>
<trkpt lat="5331767.50" lon="350.0"><ele></ele><time>2014-5-9T14:43:58Z</time></trkpt>
<trkpt lat="5331760.50" lon="350.0"><ele></ele><time>2014-5-9T14:44:1Z</time></trkpt>
<trkpt lat="5331755.00" lon="350.5"><ele></ele><time>2014-5-9T14:44:4Z</time></trkpt>
<trkpt lat="5331748.50" lon="351.1"><ele></ele><time>2014-5-9T14:44:7Z</time></trkpt>
<trkpt lat="5331742.50" lon="351.4"><ele></ele><time>2014-5-9T14:44:10Z</time></trkpt>
<trkpt lat="5331735.00" lon="350.8"><ele></ele><time>2014-5-9T14:44:13Z</time></trkpt>
<trkpt lat="5331728.00" lon="349.1"><ele></ele><time>2014-5-9T14:44:16Z</time></trkpt>
<trkpt lat="5331722.00" lon="347.8"><ele></ele><time>2014-5-9T14:44:19Z</time></trkpt>
<trkpt lat="5331718.00" lon="346.5"><ele></ele><time>2014-5-9T14:44:22Z</time></trkpt>
<trkpt lat="5331714.50" lon="345.6"><ele></ele><time>2014-5-9T14:44:25Z</time></trkpt>
<trkpt lat="5331708.50" lon="344.2"><ele></ele><time>2014-5-9T14:44:28Z</time></trkpt>
<trkpt lat="5331705.00" lon="342.3"><ele></ele><time>2014-5-9T14:44:31Z</time></trkpt>
<trkpt lat="5331698.50" lon="340.8"><ele></ele><time>2014-5-9T14:44:34Z</time></trkpt>
<trkpt lat="5331690.50" lon="339.7"><ele></ele><time>2014-5-9T14:44:37Z</time></trkpt>
<trkpt lat="5331684.00" lon="339.0"><ele></ele><time>2014-5-9T14:44:40Z</time></trkpt>
<trkpt lat="5331680.00" lon="338.5"><ele></ele><time>2014-5-9T14:44:43Z</time></trkpt>
<trkpt lat="5331672.50" lon="337.8"><ele></ele><time>2014-5-9T14:44:46Z</time></trkpt>
<trkpt lat="5331665.50" lon="337.1"><ele></ele><time>2014-5-9T14:44:49Z</time></trkpt>
<trkpt lat="5331656.50" lon="336.2"><ele></ele><time>2014-5-9T14:44:52Z</time></trkpt>
<trkpt lat="5331650.50" lon="335.8"><ele></ele><time>2014-5-9T14:44:55Z</time></trkpt>
<trkpt lat="5331643.00" lon="335.1"><ele></ele><time>2014-5-9T14:44:58Z</time></trkpt>
<trkpt lat="5331639.50" lon="334.6"><ele></ele><time>2014-5-9T14:45:1Z</time></trkpt>
<trkpt lat="5331631.50" lon="333.3"><ele></ele><time>2014-5-9T14:45:4Z</time></trkpt>
<trkpt lat="5331624.00" lon="332.4"><ele></ele><time>2014-5-9T14:45:7Z</time></trkpt>
<trkpt lat="5331616.00" lon="332.0"><ele></ele><time>2014-5-9T14:45:10Z</time></trkpt>
<trkpt lat="5331610.50" lon="331.4"><ele></ele><time>2014-5-9T14:45:13Z</time></trkpt>
<trkpt lat="5331606.00" lon="331.2"><ele></ele><time>2014-5-9T14:45:16Z</time></trkpt>
<trkpt lat="5331601.50" lon="331.2"><ele></ele><time>2014-5-9T14:45:19Z</time></trkpt>
<trkpt lat="5331596.00" lon="331.6"><ele></ele><time>2014-5-9T14:45:22Z</time></trkpt>
<trkpt lat="5331590.50" lon="331.8"><ele></ele><time>2014-5-9T14:45:25Z</time></trkpt>
<trkpt lat="5331583.50" lon="331.9"><ele></ele><time>2014-5-9T14:45:28Z</time></trkpt>
<trkpt lat="5331578.50" lon="330.7"><ele></ele><time>2014-5-9T14:45:31Z</time></trkpt>
<trkpt lat="5331576.00" lon="329.1"><ele></ele><time>2014-5-9T14:45:34Z</time></trkpt>
<trkpt lat="5331575.00" lon="327.5"><ele></ele><time>2014-5-9T14:45:37Z</time></trkpt>
<trkpt lat="5331574.50" lon="326.0"><ele></ele><time>2014-5-9T14:45:40Z</time></trkpt>
<trkpt lat="5331574.50" lon="325.2"><ele></ele><time>2014-5-9T14:45:43Z</time></trkpt>
<trkpt lat="5331574.00" lon="325.0"><ele></ele><time>2014-5-9T14:45:46Z</time></trkpt>
<trkpt lat="5331574.00" lon="325.0"><ele></ele><time>2014-5-9T14:45:49Z</time></trkpt>
<trkpt lat="5331575.00" lon="324.7"><ele></ele><time>2014-5-9T14:45:52Z</time></trkpt>
<trkpt lat="5331575.50" lon="324.2"><ele></ele><time>2014-5-9T14:45:55Z</time></trkpt>
<trkpt lat="5331577.00" lon="324.1"><ele></ele><time>2014-5-9T14:45:58Z</time></trkpt>
<trkpt lat="5331579.00" lon="324.0"><ele></ele><time>2014-5-9T14:46:1Z</time></trkpt>
<trkpt lat="5331579.50" lon="324.0"><ele></ele><time>2014-5-9T14:46:4Z</time></trkpt>
<trkpt lat="5331581.50" lon="323.4"><ele></ele><time>2014-5-9T14:46:7Z</time></trkpt>
<trkpt lat="5331584.50" lon="323.0"><ele></ele><time>2014-5-9T14:46:10Z</time></trkpt>
<trkpt lat="5331587.00" lon="323.0"><ele></ele><time>2014-5-9T14:46:13Z</time></trkpt>
<trkpt lat="5331589.50" lon="323.0"><ele></ele><time>2014-5-9T14:46:16Z</time></trkpt>
<trkpt lat="5331592.00" lon="323.0"><ele></ele><time>2014-5-9T14:46:19Z</time></trkpt>
<trkpt lat="5331593.50" lon="323.0"><ele></ele><time>2014-5-9T14:46:22Z</time></trkpt>
<trkpt lat="5331595.50" lon="323.0"><ele></ele><time>2014-5-9T14:46:25Z</time></trkpt>
<trkpt lat="5331598.50" lon="323.1"><ele></ele><time>2014-5-9T14:46:28Z</time></trkpt>
<trkpt lat="5331602.00" lon="323.2"><ele></ele><time>2014-5-9T14:46:31Z</time></trkpt>
<trkpt lat="5331604.00" lon="323.8"><ele></ele><time>2014-5-9T14:46:34Z</time></trkpt>
<trkpt lat="5331606.00" lon="324.0"><ele></ele><time>2014-5-9T14:46:37Z</time></trkpt>
<trkpt lat="5331609.00" lon="324.0"><ele></ele><time>2014-5-9T14:46:40Z</time></trkpt>
<trkpt lat="5331611.00" lon="324.0"><ele></ele><time>2014-5-9T14:46:43Z</time></trkpt>
<trkpt lat="5331614.50" lon="323.8"><ele></ele><time>2014-5-9T14:46:46Z</time></trkpt>
<trkpt lat="5331614.50" lon="323.8"><ele></ele><time>2014-5-9T14:46:49Z</time></trkpt>
<trkpt lat="5331615.50" lon="323.6"><ele></ele><time>2014-5-9T14:46:52Z</time></trkpt>
<trkpt lat="5331616.50" lon="323.6"><ele></ele><time>2014-5-9T14:46:55Z</time></trkpt>
<trkpt lat="5331618.00" lon="323.5"><ele></ele><time>2014-5-9T14:46:58Z</time></trkpt>
<trkpt lat="5331616.50" lon="323.5"><ele></ele><time>2014-5-9T14:47:1Z</time></trkpt>
<trkpt lat="5331616.50" lon="323.6"><ele></ele><time>2014-5-9T14:47:4Z</time></trkpt>
<trkpt lat="5331616.50" lon="323.6"><ele></ele><time>2014-5-9T14:47:7Z</time></trkpt>
<trkpt lat="5331616.50" lon="323.5"><ele></ele><time>2014-5-9T14:47:10Z</time></trkpt>
<trkpt lat="5331615.50" lon="323.6"><ele></ele><time>2014-5-9T14:47:13Z</time></trkpt>
<trkpt lat="5331615.50" lon="323.6"><ele></ele><time>2014-5-9T14:47:16Z</time></trkpt>
<trkpt lat="5331615.50" lon="323.6"><ele></ele><time>2014-5-9T14:47:19Z</time></trkpt>
<trkpt lat="5331615.00" lon="323.6"><ele></ele><time>2014-5-9T14:47:22Z</time></trkpt>
<trkpt lat="5331614.50" lon="323.7"><ele></ele><time>2014-5-9T14:47:25Z</time></trkpt>
<trkpt lat="5331613.00" lon="323.8"><ele></ele><time>2014-5-9T14:47:28Z</time></trkpt>
<trkpt lat="5331614.50" lon="323.8"><ele></ele><time>2014-5-9T14:47:31Z</time></trkpt>
<trkpt lat="5331616.50" lon="323.8"><ele></ele><time>2014-5-9T14:47:34Z</time></trkpt>
<trkpt lat="5331618.00" lon="323.9"><ele></ele><time>2014-5-9T14:47:37Z</time></trkpt>
<trkpt lat="5331616.50" lon="323.9"><ele></ele><time>2014-5-9T14:47:40Z</time></trkpt>
<trkpt lat="5331613.00" lon="323.8"><ele></ele><time>2014-5-9T14:47:43Z</time></trkpt>
<trkpt lat="5331613.50" lon="323.7"><ele></ele><time>2014-5-9T14:47:46Z</time></trkpt>
<trkpt lat="5331615.00" lon="323.4"><ele></ele><time>2014-5-9T14:47:49Z</time></trkpt>
<trkpt lat="5331619.00" lon="323.0"><ele></ele><time>2014-5-9T14:47:52Z</time></trkpt>
<trkpt lat="5331624.00" lon="323.0"><ele></ele><time>2014-5-9T14:47:55Z</time></trkpt>
<trkpt lat="5331630.50" lon="323.0"><ele></ele><time>2014-5-9T14:47:58Z</time></trkpt>
<trkpt lat="5331644.50" lon="322.6"><ele></ele><time>2014-5-9T14:48:1Z</time></trkpt>
<trkpt lat="5331655.00" lon="322.2"><ele></ele><time>2014-5-9T14:48:4Z</time></trkpt>
<trkpt lat="5331667.00" lon="322.5"><ele></ele><time>2014-5-9T14:48:7Z</time></trkpt>
<trkpt lat="5331680.00" lon="323.0"><ele></ele><time>2014-5-9T14:48:10Z</time></trkpt>
<trkpt lat="5331686.50" lon="323.0"><ele></ele><time>2014-5-9T14:48:13Z</time></trkpt>
<trkpt lat="5331688.50" lon="323.0"><ele></ele><time>2014-5-9T14:48:16Z</time></trkpt>
<trkpt lat="5331692.00" lon="323.0"><ele></ele><time>2014-5-9T14:48:19Z</time></trkpt>
<trkpt lat="5331703.50" lon="323.0"><ele></ele><time>2014-5-9T14:48:22Z</time></trkpt>
<trkpt lat="5331717.00" lon="324.0"><ele></ele><time>2014-5-9T14:48:25Z</time></trkpt>
<trkpt lat="5331727.50" lon="325.0"><ele></ele><time>2014-5-9T14:48:28Z</time></trkpt>
<trkpt lat="5331739.50" lon="325.0"><ele></ele><time>2014-5-9T14:48:31Z</time></trkpt>
<trkpt lat="5331753.50" lon="325.2"><ele></ele><time>2014-5-9T14:48:34Z</time></trkpt>
<trkpt lat="5331768.00" lon="325.8"><ele></ele><time>2014-5-9T14:48:37Z</time></trkpt>
<trkpt lat="5331782.00" lon="326.0"><ele></ele><time>2014-5-9T14:48:40Z</time></trkpt>
<trkpt lat="5331787.50" lon="326.0"><ele></ele><time>2014-5-9T14:48:43Z</time></trkpt>
<trkpt lat="5331799.50" lon="326.0"><ele></ele><time>2014-5-9T14:48:46Z</time></trkpt>
<trkpt lat="5331815.50" lon="326.6"><ele></ele><time>2014-5-9T14:48:49Z</time></trkpt>
<trkpt lat="5331831.50" lon="327.0"><ele></ele><time>2014-5-9T14:48:52Z</time></trkpt>
<trkpt lat="5331844.50" lon="327.7"><ele></ele><time>2014-5-9T14:48:55Z</time></trkpt>
<trkpt lat="5331859.00" lon="328.2"><ele></ele><time>2014-5-9T14:48:58Z</time></trkpt>
<trkpt lat="5331873.00" lon="327.7"><ele></ele><time>2014-5-9T14:49:1Z</time></trkpt>
<trkpt lat="5331890.00" lon="327.9"><ele></ele><time>2014-5-9T14:49:4Z</time></trkpt>
<trkpt lat="5331906.50" lon="327.1"><ele></ele><time>2014-5-9T14:49:7Z</time></trkpt>
<trkpt lat="5331922.00" lon="326.2"><ele></ele><time>2014-5-9T14:49:10Z</time></trkpt>
<trkpt lat="5331935.00" lon="325.5"><ele></ele><time>2014-5-9T14:49:13Z</time></trkpt>
<trkpt lat="5331946.00" lon="325.0"><ele></ele><time>2014-5-9T14:49:16Z</time></trkpt>
<trkpt lat="5331961.00" lon="325.0"><ele></ele><time>2014-5-9T14:49:19Z</time></trkpt>
<trkpt lat="5331974.50" lon="324.7"><ele></ele><time>2014-5-9T14:49:22Z</time></trkpt>
<trkpt lat="5331987.50" lon="324.2"><ele></ele><time>2014-5-9T14:49:25Z</time></trkpt>
<trkpt lat="5331999.50" lon="324.8"><ele></ele><time>2014-5-9T14:49:28Z</time></trkpt>
<trkpt lat="5332012.00" lon="324.5"><ele></ele><time>2014-5-9T14:49:31Z</time></trkpt>
<trkpt lat="5332024.50" lon="324.8"><ele></ele><time>2014-5-9T14:49:34Z</time></trkpt>
<trkpt lat="5332037.50" lon="324.3"><ele></ele><time>2014-5-9T14:49:37Z</time></trkpt>
<trkpt lat="5332050.50" lon="325.0"><ele></ele><time>2014-5-9T14:49:40Z</time></trkpt>
<trkpt lat="5332064.00" lon="325.0"><ele></ele><time>2014-5-9T14:49:43Z</time></trkpt>
<trkpt lat="5332075.50" lon="325.0"><ele></ele><time>2014-5-9T14:49:46Z</time></trkpt>
<trkpt lat="5332088.00" lon="325.0"><ele></ele><time>2014-5-9T14:49:49Z</time></trkpt>
<trkpt lat="5332099.00" lon="325.0"><ele></ele><time>2014-5-9T14:49:52Z</time></trkpt>
<trkpt lat="5332108.00" lon="324.8"><ele></ele><time>2014-5-9T14:49:55Z</time></trkpt>
<trkpt lat="5332114.00" lon="325.0"><ele></ele><time>2014-5-9T14:49:58Z</time></trkpt>
<trkpt lat="5332119.50" lon="324.5"><ele></ele><time>2014-5-9T14:50:1Z</time></trkpt>
<trkpt lat="5332131.00" lon="324.0"><ele></ele><time>2014-5-9T14:50:4Z</time></trkpt>
<trkpt lat="5332144.00" lon="324.0"><ele></ele><time>2014-5-9T14:50:7Z</time></trkpt>
<trkpt lat="5332153.00" lon="323.3"><ele></ele><time>2014-5-9T14:50:10Z</time></trkpt>
<trkpt lat="5332165.50" lon="323.0"><ele></ele><time>2014-5-9T14:50:13Z</time></trkpt>
<trkpt lat="5332176.00" lon="323.0"><ele></ele><time>2014-5-9T14:50:16Z</time></trkpt>
<trkpt lat="5332186.00" lon="323.0"><ele></ele><time>2014-5-9T14:50:19Z</time></trkpt>
<trkpt lat="5332196.50" lon="323.0"><ele></ele><time>2014-5-9T14:50:22Z</time></trkpt>
<trkpt lat="5332208.00" lon="323.0"><ele></ele><time>2014-5-9T14:50:25Z</time></trkpt>
<trkpt lat="5332219.50" lon="322.0"><ele></ele><time>2014-5-9T14:50:28Z</time></trkpt>
<trkpt lat="5332231.00" lon="322.0"><ele></ele><time>2014-5-9T14:50:31Z</time></trkpt>
<trkpt lat="5332240.50" lon="322.0"><ele></ele><time>2014-5-9T14:50:34Z</time></trkpt>
<trkpt lat="5332249.00" lon="322.2"><ele></ele><time>2014-5-9T14:50:37Z</time></trkpt>
<trkpt lat="5332255.00" lon="322.7"><ele></ele><time>2014-5-9T14:50:40Z</time></trkpt>
<trkpt lat="5332266.50" lon="322.9"><ele></ele><time>2014-5-9T14:50:43Z</time></trkpt>
<trkpt lat="5332276.50" lon="323.0"><ele></ele><time>2014-5-9T14:50:46Z</time></trkpt>
<trkpt lat="5332288.00" lon="323.0"><ele></ele><time>2014-5-9T14:50:49Z</time></trkpt>
<trkpt lat="5332295.50" lon="323.0"><ele></ele><time>2014-5-9T14:50:52Z</time></trkpt>
<trkpt lat="5332301.00" lon="323.0"><ele></ele><time>2014-5-9T14:50:55Z</time></trkpt>
<trkpt lat="5332309.00" lon="322.4"><ele></ele><time>2014-5-9T14:50:58Z</time></trkpt>
<trkpt lat="5332317.50" lon="322.0"><ele></ele><time>2014-5-9T14:51:1Z</time></trkpt>
<trkpt lat="5332323.50" lon="322.0"><ele></ele><time>2014-5-9T14:51:4Z</time></trkpt>
<trkpt lat="5332334.00" lon="322.0"><ele></ele><time>2014-5-9T14:51:7Z</time></trkpt>
<trkpt lat="5332341.50" lon="322.0"><ele></ele><time>2014-5-9T14:51:10Z</time></trkpt>
<trkpt lat="5332352.00" lon="322.0"><ele></ele><time>2014-5-9T14:51:13Z</time></trkpt>
<trkpt lat="5332360.50" lon="322.0"><ele></ele><time>2014-5-9T14:51:16Z</time></trkpt>
<trkpt lat="5332370.00" lon="322.0"><ele></ele><time>2014-5-9T14:51:19Z</time></trkpt>
<trkpt lat="5332375.50" lon="322.0"><ele></ele><time>2014-5-9T14:51:22Z</time></trkpt>
<trkpt lat="5332384.00" lon="322.0"><ele></ele><time>2014-5-9T14:51:25Z</time></trkpt>
<trkpt lat="5332393.50" lon="322.0"><ele></ele><time>2014-5-9T14:51:28Z</time></trkpt>
<trkpt lat="5332405.00" lon="322.0"><ele></ele><time>2014-5-9T14:51:31Z</time></trkpt>
<trkpt lat="5332414.50" lon="322.0"><ele></ele><time>2014-5-9T14:51:34Z</time></trkpt>
<trkpt lat="5332422.00" lon="322.0"><ele></ele><time>2014-5-9T14:51:37Z</time></trkpt>
<trkpt lat="5332435.00" lon="322.0"><ele></ele><time>2014-5-9T14:51:40Z</time></trkpt>
<trkpt lat="5332444.50" lon="322.4"><ele></ele><time>2014-5-9T14:51:43Z</time></trkpt>
<trkpt lat="5332453.50" lon="323.0"><ele></ele><time>2014-5-9T14:51:46Z</time></trkpt>
<trkpt lat="5332463.50" lon="323.0"><ele></ele><time>2014-5-9T14:51:49Z</time></trkpt>
<trkpt lat="5332472.00" lon="323.0"><ele></ele><time>2014-5-9T14:51:52Z</time></trkpt>
<trkpt lat="5332481.50" lon="323.0"><ele></ele><time>2014-5-9T14:51:55Z</time></trkpt>
<trkpt lat="5332492.00" lon="323.0"><ele></ele><time>2014-5-9T14:51:58Z</time></trkpt>
<trkpt lat="5332501.50" lon="322.1"><ele></ele><time>2014-5-9T14:52:1Z</time></trkpt>
<trkpt lat="5332511.00" lon="322.0"><ele></ele><time>2014-5-9T14:52:4Z</time></trkpt>
<trkpt lat="5332519.50" lon="322.5"><ele></ele><time>2014-5-9T14:52:7Z</time></trkpt>
<trkpt lat="5332529.50" lon="323.0"><ele></ele><time>2014-5-9T14:52:10Z</time></trkpt>
<trkpt lat="5332534.50" lon="323.0"><ele></ele><time>2014-5-9T14:52:13Z</time></trkpt>
<trkpt lat="5332544.00" lon="323.0"><ele></ele><time>2014-5-9T14:52:16Z</time></trkpt>
<trkpt lat="5332552.50" lon="324.0"><ele></ele><time>2014-5-9T14:52:19Z</time></trkpt>
<trkpt lat="5332563.50" lon="324.0"><ele></ele><time>2014-5-9T14:52:22Z</time></trkpt>
<trkpt lat="5332573.00" lon="325.0"><ele></ele><time>2014-5-9T14:52:25Z</time></trkpt>
<trkpt lat="5332582.50" lon="325.4"><ele></ele><time>2014-5-9T14:52:28Z</time></trkpt>
<trkpt lat="5332589.00" lon="326.0"><ele></ele><time>2014-5-9T14:52:31Z</time></trkpt>
<trkpt lat="5332595.00" lon="326.1"><ele></ele><time>2014-5-9T14:52:34Z</time></trkpt>
<trkpt lat="5332602.50" lon="327.0"><ele></ele><time>2014-5-9T14:52:37Z</time></trkpt>
<trkpt lat="5332609.50" lon="327.0"><ele></ele><time>2014-5-9T14:52:40Z</time></trkpt>
<trkpt lat="5332615.50" lon="327.0"><ele></ele><time>2014-5-9T14:52:43Z</time></trkpt>
<trkpt lat="5332619.00" lon="327.0"><ele></ele><time>2014-5-9T14:52:46Z</time></trkpt>
<trkpt lat="5332625.00" lon="327.0"><ele></ele><time>2014-5-9T14:52:49Z</time></trkpt>
<trkpt lat="5332631.00" lon="327.0"><ele></ele><time>2014-5-9T14:52:52Z</time></trkpt>
<trkpt lat="5332637.00" lon="327.0"><ele></ele><time>2014-5-9T14:52:55Z</time></trkpt>
<trkpt lat="5332635.50" lon="327.3"><ele></ele><time>2014-5-9T14:52:58Z</time></trkpt>
<trkpt lat="5332631.50" lon="328.0"><ele></ele><time>2014-5-9T14:53:1Z</time></trkpt>
<trkpt lat="5332627.50" lon="328.0"><ele></ele><time>2014-5-9T14:53:4Z</time></trkpt>
<trkpt lat="5332626.00" lon="328.0"><ele></ele><time>2014-5-9T14:53:7Z</time></trkpt>
<trkpt lat="5332628.50" lon="329.0"><ele></ele><time>2014-5-9T14:53:10Z</time></trkpt>
<trkpt lat="5332634.50" lon="329.0"><ele></ele><time>2014-5-9T14:53:13Z</time></trkpt>
<trkpt lat="5332642.50" lon="329.7"><ele></ele><time>2014-5-9T14:53:16Z</time></trkpt>
<trkpt lat="5332648.50" lon="330.1"><ele></ele><time>2014-5-9T14:53:19Z</time></trkpt>
<trkpt lat="5332659.00" lon="331.2"><ele></ele><time>2014-5-9T14:53:22Z</time></trkpt>
<trkpt lat="5332669.50" lon="332.0"><ele></ele><time>2014-5-9T14:53:25Z</time></trkpt>
<trkpt lat="5332679.50" lon="332.8"><ele></ele><time>2014-5-9T14:53:28Z</time></trkpt>
<trkpt lat="5332686.50" lon="333.0"><ele></ele><time>2014-5-9T14:53:31Z</time></trkpt>
<trkpt lat="5332689.00" lon="333.1"><ele></ele><time>2014-5-9T14:53:34Z</time></trkpt>
<trkpt lat="5332689.50" lon="334.0"><ele></ele><time>2014-5-9T14:53:37Z</time></trkpt>
<trkpt lat="5332689.50" lon="334.0"><ele></ele><time>2014-5-9T14:53:40Z</time></trkpt>
<trkpt lat="5332688.50" lon="334.4"><ele></ele><time>2014-5-9T14:53:43Z</time></trkpt>
<trkpt lat="5332687.50" lon="334.9"><ele></ele><time>2014-5-9T14:53:46Z</time></trkpt>
<trkpt lat="5332690.00" lon="335.0"><ele></ele><time>2014-5-9T14:53:49Z</time></trkpt>
<trkpt lat="5332693.50" lon="335.0"><ele></ele><time>2014-5-9T14:53:52Z</time></trkpt>
<trkpt lat="5332689.00" lon="335.5"><ele></ele><time>2014-5-9T14:53:55Z</time></trkpt>
<trkpt lat="5332695.50" lon="336.0"><ele></ele><time>2014-5-9T14:53:58Z</time></trkpt>
<trkpt lat="5332700.50" lon="336.1"><ele></ele><time>2014-5-9T14:54:1Z</time></trkpt>
<trkpt lat="5332702.00" lon="336.0"><ele></ele><time>2014-5-9T14:54:4Z</time></trkpt>
<trkpt lat="5332703.00" lon="336.0"><ele></ele><time>2014-5-9T14:54:7Z</time></trkpt>
<trkpt lat="5332702.00" lon="336.1"><ele></ele><time>2014-5-9T14:54:10Z</time></trkpt>
<trkpt lat="5332703.00" lon="336.0"><ele></ele><time>2014-5-9T14:54:13Z</time></trkpt>
<trkpt lat="5332702.00" lon="336.0"><ele></ele><time>2014-5-9T14:54:16Z</time></trkpt>
<trkpt lat="5332697.50" lon="336.0"><ele></ele><time>2014-5-9T14:54:19Z</time></trkpt>
<trkpt lat="5332696.50" lon="336.2"><ele></ele><time>2014-5-9T14:54:22Z</time></trkpt>
<trkpt lat="5332695.50" lon="336.1"><ele></ele><time>2014-5-9T14:54:25Z</time></trkpt>
<trkpt lat="5332695.50" lon="336.2"><ele></ele><time>2014-5-9T14:54:28Z</time></trkpt>
<trkpt lat="5332697.00" lon="335.4"><ele></ele><time>2014-5-9T14:54:31Z</time></trkpt>
<trkpt lat="5332692.00" lon="335.0"><ele></ele><time>2014-5-9T14:54:34Z</time></trkpt>
<trkpt lat="5332692.50" lon="335.0"><ele></ele><time>2014-5-9T14:54:37Z</time></trkpt>
<trkpt lat="5332692.50" lon="335.0"><ele></ele><time>2014-5-9T14:54:40Z</time></trkpt>
<trkpt lat="5332697.00" lon="333.0"><ele></ele><time>2014-5-9T14:54:43Z</time></trkpt>
<trkpt lat="5332692.50" lon="335.0"><ele></ele><time>2014-5-9T14:54:46Z</time></trkpt>
</trkseg></trk></gpx>